createdAt,value
2023-05-14T00:01:08.286Z,10.79
2023-05-14T00:03:35.774Z,10.76
2023-05-14T00:06:03.268Z,10.68
2023-05-14T00:08:30.244Z,10.58
2023-05-14T00:10:57.274Z,10.47
2023-05-14T00:13:25.371Z,10.42
2023-05-14T00:15:52.466Z,10.39
2023-05-14T00:18:19.580Z,10.35
2023-05-14T00:20:46.604Z,10.33
2023-05-14T00:23:13.771Z,10.29
2023-05-14T00:25:40.866Z,10.23
2023-05-14T00:28:08.040Z,10.22
2023-05-14T00:30:35.181Z,10.19
2023-05-14T00:33:02.507Z,10.17
2023-05-14T00:35:29.634Z,10.12
2023-05-14T00:37:56.838Z,10.09
2023-05-14T00:40:27.320Z,10.01
2023-05-14T00:42:55.295Z,9.98
2023-05-14T00:45:22.783Z,9.95
2023-05-14T00:47:50.669Z,9.86
2023-05-14T00:50:18.291Z,9.81
2023-05-14T00:52:46.030Z,9.78
2023-05-14T00:55:16.630Z,9.73
2023-05-14T00:57:44.584Z,9.71
2023-05-14T01:00:12.104Z,9.67
2023-05-14T01:02:39.304Z,9.56
2023-05-14T01:05:07.395Z,9.49
2023-05-14T01:08:02.599Z,9.46
2023-05-14T01:10:38.051Z,9.44
2023-05-14T01:13:21.291Z,9.40
2023-05-14T01:15:49.309Z,9.34
2023-05-14T01:18:18.820Z,9.33
2023-05-14T01:20:46.546Z,9.31
2023-05-14T01:23:13.727Z,9.31
2023-05-14T01:25:41.725Z,9.31
2023-05-14T01:28:30.007Z,9.29
2023-05-14T01:31:08.729Z,9.24
2023-05-14T01:33:36.668Z,9.23
2023-05-14T01:36:04.307Z,9.20
2023-05-14T01:38:34.304Z,9.16
2023-05-14T01:41:02.388Z,9.14
2023-05-14T01:43:30.752Z,9.13
2023-05-14T01:45:57.925Z,9.13
2023-05-14T01:48:25.561Z,9.13
2023-05-14T01:50:52.723Z,9.11
2023-05-14T01:53:19.887Z,9.11
2023-05-14T01:55:46.943Z,9.08
2023-05-14T01:58:14.139Z,9.11
2023-05-14T02:00:41.263Z,9.16
2023-05-14T02:03:08.723Z,9.18
2023-05-14T02:05:35.817Z,9.20
2023-05-14T02:08:02.885Z,9.20
2023-05-14T02:10:30.034Z,9.18
2023-05-14T02:12:57.144Z,9.21
2023-05-14T02:15:24.415Z,9.17
2023-05-14T02:17:51.468Z,9.15
2023-05-14T02:20:18.746Z,9.12
2023-05-14T02:22:46.496Z,9.10
2023-05-14T02:25:14.023Z,9.06
2023-05-14T02:27:41.143Z,9.00
2023-05-14T02:30:09.464Z,8.96
2023-05-14T02:32:37.241Z,8.97
2023-05-14T02:35:04.663Z,8.94
2023-05-14T02:37:32.303Z,8.89
2023-05-14T02:39:59.411Z,8.84
2023-05-14T02:42:27.212Z,8.79
2023-05-14T02:44:54.322Z,8.75
2023-05-14T02:47:21.369Z,8.71
2023-05-14T02:49:48.575Z,8.66
2023-05-14T02:52:15.698Z,8.64
2023-05-14T02:54:43.314Z,8.62
2023-05-14T02:57:10.609Z,8.58
2023-05-14T02:59:37.674Z,8.52
2023-05-14T03:02:05.823Z,8.52
2023-05-14T03:04:33.387Z,8.53
2023-05-14T03:07:00.487Z,8.54
2023-05-14T03:09:27.500Z,8.53
2023-05-14T03:11:55.441Z,8.53
2023-05-14T03:14:22.663Z,8.58
2023-05-14T03:16:50.295Z,8.65
2023-05-14T03:19:18.366Z,8.98
2023-05-14T03:21:45.914Z,9.48
2023-05-14T03:24:12.935Z,9.99
2023-05-14T03:26:40.014Z,10.48
2023-05-14T03:29:07.765Z,11.03
2023-05-14T03:31:35.152Z,11.56
2023-05-14T03:34:02.333Z,12.05
2023-05-14T03:36:29.528Z,12.42
2023-05-14T03:38:56.608Z,12.83
2023-05-14T03:41:23.726Z,13.29
2023-05-14T03:43:50.828Z,13.73
2023-05-14T03:46:17.964Z,14.07
2023-05-14T03:48:45.053Z,14.22
2023-05-14T03:51:12.511Z,14.46
2023-05-14T03:53:39.638Z,14.79
2023-05-14T03:56:07.243Z,15.22
2023-05-14T03:58:34.310Z,15.64
2023-05-14T04:01:01.361Z,16.08
2023-05-14T04:03:28.646Z,16.27
2023-05-14T04:05:57.230Z,16.45
2023-05-14T04:08:24.284Z,16.73
2023-05-14T04:10:51.824Z,16.98
2023-05-14T04:13:19.042Z,17.26
2023-05-14T04:15:46.253Z,17.53
2023-05-14T04:18:13.853Z,17.59
2023-05-14T04:20:41.315Z,17.58
2023-05-14T04:23:08.554Z,17.55
2023-05-14T04:25:35.705Z,17.60
2023-05-14T04:28:02.880Z,17.99
2023-05-14T04:30:29.972Z,18.44
2023-05-14T04:32:57.325Z,18.89
2023-05-14T04:35:25.255Z,19.22
2023-05-14T04:37:52.501Z,19.46
2023-05-14T04:40:19.663Z,19.65
2023-05-14T04:42:46.726Z,19.61
2023-05-14T04:45:13.931Z,19.45
2023-05-14T04:47:41.880Z,19.31
2023-05-14T04:50:10.091Z,19.04
2023-05-14T04:52:37.254Z,18.59
2023-05-14T04:55:04.603Z,17.97
2023-05-14T04:57:31.732Z,17.46
2023-05-14T04:59:58.833Z,17.22
2023-05-14T05:02:26.533Z,17.07
2023-05-14T05:04:53.697Z,17.17
2023-05-14T05:07:20.811Z,17.21
2023-05-14T05:09:47.848Z,17.23
2023-05-14T05:12:14.949Z,17.22
2023-05-14T05:14:41.943Z,17.20
2023-05-14T05:17:09.136Z,17.21
2023-05-14T05:19:43.294Z,17.27
2023-05-14T05:22:11.172Z,17.33
2023-05-14T05:24:38.194Z,17.37
2023-05-14T05:27:06.262Z,17.41
2023-05-14T05:29:33.533Z,17.53
2023-05-14T05:32:00.893Z,17.60
2023-05-14T05:34:28.222Z,17.67
2023-05-14T05:36:55.254Z,17.85
2023-05-14T05:39:22.326Z,18.08
2023-05-14T05:41:49.364Z,18.30
2023-05-14T05:44:16.453Z,18.43
2023-05-14T05:46:43.606Z,18.49
2023-05-14T05:49:10.843Z,18.66
2023-05-14T05:51:39.203Z,18.89
2023-05-14T05:54:06.343Z,19.01
2023-05-14T05:56:33.351Z,19.07
2023-05-14T05:59:00.740Z,19.15
2023-05-14T06:01:28.110Z,19.23
2023-05-14T06:03:55.202Z,19.30
2023-05-14T06:06:22.420Z,19.47
2023-05-14T06:08:49.494Z,19.59
2023-05-14T06:11:48.880Z,19.70
2023-05-14T06:14:15.969Z,19.77
2023-05-14T06:16:43.328Z,19.76
2023-05-14T06:19:11.380Z,19.86
2023-05-14T06:21:38.793Z,19.95
2023-05-14T06:24:06.250Z,20.10
2023-05-14T06:26:33.342Z,20.18
2023-05-14T06:29:00.608Z,20.20
2023-05-14T06:31:27.719Z,20.34
2023-05-14T06:33:54.774Z,20.44
2023-05-14T06:36:21.798Z,20.43
2023-05-14T06:38:48.832Z,20.63
2023-05-14T06:41:16.901Z,20.83
2023-05-14T06:43:43.932Z,20.99
2023-05-14T06:46:10.989Z,21.06
2023-05-14T06:48:38.121Z,21.17
2023-05-14T06:51:08.613Z,21.37
2023-05-14T06:53:35.758Z,21.61
2023-05-14T06:56:02.854Z,21.68
2023-05-14T06:58:29.952Z,21.72
2023-05-14T07:00:57.054Z,21.74
2023-05-14T07:03:24.232Z,21.91
2023-05-14T07:05:52.277Z,22.05
2023-05-14T07:08:19.430Z,22.05
2023-05-14T07:10:46.454Z,22.08
2023-05-14T07:13:13.870Z,21.35
2023-05-14T07:15:41.053Z,21.36
2023-05-14T07:18:08.207Z,21.53
2023-05-14T07:20:35.311Z,21.50
2023-05-14T07:23:02.357Z,20.90
2023-05-14T07:25:29.446Z,21.32
2023-05-14T07:27:56.554Z,21.62
2023-05-14T07:30:23.852Z,21.69
2023-05-14T07:32:51.364Z,21.78
2023-05-14T07:35:18.670Z,21.98
2023-05-14T07:37:45.725Z,22.25
2023-05-14T07:40:12.931Z,22.60
2023-05-14T07:42:40.105Z,22.79
2023-05-14T07:45:07.967Z,22.87
2023-05-14T07:47:35.243Z,22.66
2023-05-14T07:50:02.456Z,22.85
2023-05-14T07:52:30.709Z,23.08
2023-05-14T07:54:57.770Z,23.18
2023-05-14T07:57:24.754Z,23.12
2023-05-14T07:59:51.874Z,22.73
2023-05-14T08:02:19.111Z,22.38
2023-05-14T08:04:46.219Z,22.48
2023-05-14T08:07:13.422Z,22.31
2023-05-14T08:09:40.557Z,22.15
2023-05-14T08:12:08.625Z,22.41
2023-05-14T08:14:35.729Z,22.47
2023-05-14T08:17:04.199Z,22.48
2023-05-14T08:19:31.372Z,22.18
2023-05-14T08:24:25.407Z,22.50
2023-05-14T08:26:52.714Z,22.53
2023-05-14T08:29:19.966Z,22.49
2023-05-14T08:31:47.092Z,22.52
2023-05-14T08:34:14.265Z,22.78
2023-05-14T08:36:41.529Z,22.54
2023-05-14T08:39:08.656Z,22.77
2023-05-14T08:41:36.264Z,23.09
2023-05-14T08:44:15.403Z,23.10
2023-05-14T08:46:42.634Z,23.33
2023-05-14T08:49:29.359Z,23.31
2023-05-14T08:51:56.641Z,23.34
2023-05-14T08:54:24.915Z,23.29
2023-05-14T08:56:52.527Z,22.94
2023-05-14T08:59:20.142Z,23.02
2023-05-14T09:01:48.906Z,22.84
2023-05-14T09:04:17.996Z,23.09
2023-05-14T09:06:46.565Z,23.28
2023-05-14T09:09:13.905Z,22.81
2023-05-14T09:11:43.756Z,22.97
2023-05-14T09:14:10.863Z,22.99
2023-05-14T09:16:39.220Z,23.12
2023-05-14T09:19:07.249Z,22.92
2023-05-14T09:21:35.386Z,22.81
2023-05-14T09:24:02.451Z,22.76
2023-05-14T09:26:32.405Z,22.80
2023-05-14T09:29:03.796Z,22.25
2023-05-14T09:31:32.099Z,22.40
2023-05-14T09:34:00.035Z,22.77
2023-05-14T09:36:27.507Z,22.98
2023-05-14T09:38:57.580Z,23.04
2023-05-14T09:41:25.032Z,23.10
2023-05-14T09:43:52.487Z,23.33
2023-05-14T09:46:19.585Z,23.55
2023-05-14T09:48:46.736Z,23.78
2023-05-14T09:51:14.328Z,23.82
2023-05-14T09:53:42.052Z,23.80
2023-05-14T09:56:09.379Z,23.94
2023-05-14T09:58:36.608Z,24.06
2023-05-14T10:01:03.924Z,23.96
2023-05-14T10:03:31.111Z,23.81
2023-05-14T10:06:05.218Z,23.90
2023-05-14T10:08:35.619Z,23.94
2023-05-14T10:11:07.323Z,23.83
2023-05-14T10:13:40.901Z,23.90
2023-05-14T10:16:28.855Z,23.72
2023-05-14T10:19:09.980Z,23.84
2023-05-14T10:21:38.520Z,23.99
2023-05-14T10:24:06.752Z,24.16
2023-05-14T10:26:39.475Z,24.22
2023-05-14T10:29:07.098Z,24.39
2023-05-14T10:31:49.051Z,24.16
2023-05-14T10:34:41.205Z,23.91
2023-05-14T10:37:14.533Z,23.69
2023-05-14T10:39:50.191Z,23.35
2023-05-14T12:15:15.484Z,21.98
2023-05-14T12:17:56.288Z,22.08
2023-05-14T12:20:28.381Z,21.99
2023-05-14T12:23:04.680Z,22.12
2023-05-14T12:25:35.076Z,22.14
2023-05-14T12:28:15.123Z,22.52
2023-05-14T12:30:42.553Z,22.23
2023-05-14T12:33:10.372Z,22.06
2023-05-14T12:35:41.467Z,21.89
2023-05-14T12:38:22.725Z,21.26
2023-05-14T12:45:51.472Z,21.07
2023-05-14T12:48:19.197Z,21.06
2023-05-14T12:50:46.790Z,21.13
2023-05-14T12:53:18.356Z,21.25
2023-05-14T12:55:47.531Z,21.08
2023-05-14T12:58:15.410Z,21.19
2023-05-14T13:00:42.477Z,21.13
2023-05-14T13:16:22.043Z,20.15
2023-05-14T13:28:26.477Z,21.02
2023-05-14T13:38:55.974Z,20.36
2023-05-14T13:41:22.974Z,20.25
2023-05-14T13:43:50.311Z,19.71
2023-05-14T13:46:17.368Z,19.66
2023-05-14T13:48:44.390Z,19.62
2023-05-14T13:51:16.049Z,19.72
2023-05-14T13:53:43.143Z,20.04
2023-05-14T13:56:10.198Z,20.14
2023-05-14T13:58:50.057Z,20.42
2023-05-14T14:01:17.149Z,20.70
2023-05-14T14:03:44.196Z,20.77
2023-05-14T14:06:11.104Z,20.46
2023-05-14T14:08:38.227Z,20.42
2023-05-14T14:11:05.462Z,20.39
2023-05-14T14:13:32.568Z,20.34
2023-05-14T14:16:00.263Z,20.27
2023-05-14T14:18:27.512Z,20.51
2023-05-14T14:20:54.850Z,20.59
2023-05-14T14:23:21.831Z,20.60
2023-05-14T14:25:49.057Z,20.52
2023-05-14T14:28:16.158Z,20.60
2023-05-14T14:30:44.027Z,20.54
2023-05-14T14:33:11.748Z,20.51
2023-05-14T14:35:38.869Z,20.42
2023-05-14T14:38:05.977Z,20.42
2023-05-14T14:40:34.534Z,20.46
2023-05-14T14:43:02.371Z,20.46
2023-05-14T14:45:29.470Z,20.21
2023-05-14T14:48:24.822Z,20.06
2023-05-14T14:50:52.348Z,19.66
2023-05-14T14:53:20.574Z,19.66
2023-05-14T14:55:52.140Z,19.62
2023-05-14T14:58:20.918Z,19.72
2023-05-14T15:00:49.070Z,19.66
2023-05-14T15:06:32.988Z,19.51
2023-05-14T15:09:00.137Z,19.59
2023-05-14T15:11:29.002Z,19.61
2023-05-14T15:13:56.287Z,19.56
2023-05-14T15:16:25.308Z,19.41
2023-05-14T15:18:53.227Z,19.32
2023-05-14T15:21:20.375Z,19.17
2023-05-14T15:23:47.496Z,19.13
2023-05-14T15:26:14.845Z,19.12
2023-05-14T15:28:41.977Z,19.02
2023-05-14T15:31:09.122Z,18.98
2023-05-14T15:33:36.440Z,18.87
2023-05-14T15:36:04.111Z,18.81
2023-05-14T15:38:31.495Z,18.65
2023-05-14T15:40:58.769Z,18.69
2023-05-14T16:39:52.962Z,18.58
2023-05-14T16:42:20.469Z,18.55
2023-05-14T16:44:47.676Z,18.68
2023-05-14T16:47:17.784Z,18.83
2023-05-14T16:49:49.255Z,18.79
2023-05-14T16:52:18.054Z,18.81
2023-05-14T16:54:45.565Z,18.89
2023-05-14T16:57:12.769Z,18.95
2023-05-14T16:59:40.583Z,18.73
2023-05-14T17:02:08.224Z,18.72
2023-05-14T17:04:38.932Z,18.61
2023-05-14T17:07:06.283Z,18.55
2023-05-14T17:09:33.519Z,18.48
2023-05-14T17:12:00.879Z,18.51
2023-05-14T17:14:28.409Z,18.49
2023-05-14T17:16:55.707Z,18.44
2023-05-14T17:19:22.903Z,18.46
2023-05-14T17:21:50.055Z,18.43
2023-05-14T17:24:17.348Z,18.37
2023-05-14T17:26:44.642Z,18.30
2023-05-14T17:29:11.964Z,18.25
2023-05-14T17:31:39.309Z,18.25
2023-05-14T17:34:06.608Z,18.25
2023-05-14T17:36:33.858Z,18.23
2023-05-14T17:39:01.023Z,18.15
2023-05-14T17:41:31.606Z,18.16
2023-05-14T17:43:58.937Z,18.11
2023-05-14T17:46:26.350Z,17.95
2023-05-14T17:48:53.668Z,17.82
2023-05-14T17:51:20.893Z,17.78
2023-05-14T17:53:48.059Z,17.79
2023-05-14T17:56:19.982Z,17.67
2023-05-14T17:58:47.567Z,17.62
2023-05-14T18:04:00.418Z,17.45
2023-05-14T18:06:27.553Z,17.39
2023-05-14T18:08:55.228Z,17.27
2023-05-14T18:11:22.486Z,17.20
2023-05-14T18:13:49.726Z,17.16
2023-05-14T18:16:16.946Z,17.06
2023-05-14T18:18:44.360Z,17.10
2023-05-14T18:21:12.244Z,17.09
2023-05-14T18:23:39.359Z,16.90
2023-05-14T18:26:07.019Z,16.87
2023-05-14T18:28:34.374Z,16.81
2023-05-14T18:31:01.708Z,16.76
2023-05-14T18:33:29.738Z,16.78
2023-05-14T18:35:57.436Z,16.63
2023-05-14T18:38:24.703Z,16.61
2023-05-14T18:40:52.018Z,16.61
2023-05-14T18:43:20.637Z,16.52
2023-05-14T18:45:49.042Z,16.47
2023-05-14T18:48:16.938Z,16.44
2023-05-14T18:58:17.856Z,16.17
2023-05-14T19:00:45.000Z,15.97
2023-05-14T19:03:12.237Z,15.97
2023-05-14T19:05:39.390Z,15.86
2023-05-14T19:08:06.806Z,15.85
2023-05-14T19:10:34.913Z,15.75
2023-05-14T19:13:02.498Z,15.70
2023-05-14T19:15:29.571Z,15.71
2023-05-14T19:17:56.707Z,15.57
2023-05-14T19:20:23.764Z,15.58
2023-05-14T19:22:51.029Z,15.43
2023-05-14T19:25:18.051Z,15.42
2023-05-14T19:27:45.784Z,15.43
2023-05-14T19:30:17.392Z,15.46
2023-05-14T19:32:45.410Z,15.43
2023-05-14T19:35:13.241Z,15.38
2023-05-14T19:37:40.480Z,15.33
2023-05-14T19:40:08.058Z,15.30
2023-05-14T19:42:35.073Z,15.36
2023-05-14T19:45:02.343Z,15.35
2023-05-14T19:47:29.793Z,15.30
2023-05-14T19:49:56.943Z,15.28
2023-05-14T19:52:24.027Z,15.30
2023-05-14T19:54:53.423Z,15.30
2023-05-14T19:57:22.801Z,15.29
2023-05-14T19:59:51.193Z,15.25
2023-05-14T20:02:18.689Z,15.22
2023-05-14T20:04:46.364Z,15.20
2023-05-14T20:07:16.070Z,15.18
2023-05-14T20:09:44.936Z,15.16
2023-05-14T20:12:13.591Z,15.15
2023-05-14T20:14:41.666Z,15.10
2023-05-14T20:17:09.129Z,15.06
2023-05-14T20:19:36.435Z,15.02
2023-05-14T20:22:03.608Z,14.98
2023-05-14T20:24:30.941Z,14.94
2023-05-14T20:26:58.160Z,14.88
2023-05-14T20:29:25.593Z,14.82
2023-05-14T20:31:52.681Z,14.77
2023-05-14T20:34:20.459Z,14.71
2023-05-14T20:36:47.875Z,14.68
2023-05-14T20:39:16.418Z,14.61
2023-05-14T20:41:45.734Z,14.35
2023-05-14T20:44:12.892Z,14.31
2023-05-14T20:46:40.199Z,14.20
2023-05-14T20:49:07.956Z,14.11
2023-05-14T20:51:38.468Z,14.07
2023-05-14T20:54:05.727Z,13.98
2023-05-14T20:56:32.997Z,13.88
2023-05-14T20:59:00.058Z,13.87
2023-05-14T21:01:27.231Z,13.92
2023-05-14T21:03:54.603Z,13.98
2023-05-14T21:06:21.955Z,14.00
